createdAt,value
2017-05-30T00:00:07.905Z,26.08
2017-05-30T00:02:35.637Z,27.32
2017-05-30T00:05:03.387Z,25.56
2017-05-30T00:07:31.150Z,26.02
2017-05-30T00:09:58.887Z,25.84
2017-05-30T00:12:26.650Z,25.88
2017-05-30T00:14:54.388Z,24.70
2017-05-30T00:17:22.149Z,26.24
2017-05-30T00:19:49.902Z,27.92
2017-05-30T00:22:17.911Z,24.64
2017-05-30T00:24:45.645Z,27.18
2017-05-30T00:27:13.377Z,27.32
2017-05-30T00:29:41.140Z,27.26
2017-05-30T00:32:08.887Z,24.76
2017-05-30T00:34:36.651Z,26.36
2017-05-30T00:37:04.385Z,25.86
2017-05-30T00:39:32.167Z,26.02
2017-05-30T00:41:59.899Z,25.44
2017-05-30T00:44:27.632Z,26.58
2017-05-30T00:46:55.389Z,27.04
2017-05-30T00:49:23.129Z,25.48
2017-05-30T00:51:50.884Z,25.56
2017-05-30T00:54:18.620Z,27.48
2017-05-30T00:56:46.372Z,26.26
2017-05-30T00:59:14.112Z,25.80
2017-05-30T01:01:41.870Z,26.98
2017-05-30T01:04:09.599Z,27.50
2017-05-30T01:06:37.367Z,27.92
2017-05-30T01:09:05.096Z,27.12
2017-05-30T01:11:32.827Z,26.42
2017-05-30T01:14:00.584Z,26.44
2017-05-30T01:16:28.317Z,26.16
2017-05-30T01:18:56.087Z,24.14
2017-05-30T01:21:23.824Z,29.94
2017-05-30T01:23:51.553Z,26.56
2017-05-30T01:26:19.324Z,28.56
2017-05-30T01:28:47.106Z,26.62
2017-05-30T01:31:14.849Z,28.38
2017-05-30T01:33:42.604Z,27.00
2017-05-30T01:36:10.340Z,25.96
2017-05-30T01:38:38.118Z,24.76
2017-05-30T01:41:05.886Z,26.58
2017-05-30T01:43:33.643Z,26.20
2017-05-30T01:46:01.376Z,28.82
2017-05-30T01:48:29.178Z,25.80
2017-05-30T01:50:56.917Z,26.46
2017-05-30T01:53:24.655Z,24.76
2017-05-30T01:55:52.436Z,25.72
2017-05-30T01:58:20.173Z,26.84
2017-05-30T02:00:48.350Z,25.04
2017-05-30T02:03:16.076Z,27.08
2017-05-30T02:05:43.801Z,27.72
2017-05-30T02:08:11.562Z,25.88
2017-05-30T02:10:39.299Z,27.28
2017-05-30T02:13:07.069Z,27.26
2017-05-30T02:15:34.798Z,25.72
2017-05-30T02:18:02.985Z,27.88
2017-05-30T02:20:30.734Z,25.38
2017-05-30T02:22:58.469Z,27.94
2017-05-30T02:25:26.233Z,26.50
2017-05-30T02:27:53.964Z,27.82
2017-05-30T02:30:21.723Z,26.66
2017-05-30T02:32:49.456Z,27.62
2017-05-30T02:35:17.237Z,24.60
2017-05-30T02:37:44.980Z,26.54
2017-05-30T02:40:12.716Z,27.14
2017-05-30T02:42:40.480Z,28.86
2017-05-30T02:45:08.233Z,27.62
2017-05-30T02:47:35.996Z,26.72
2017-05-30T02:50:03.736Z,25.52
2017-05-30T02:52:31.500Z,25.88
2017-05-30T02:54:59.229Z,27.10
2017-05-30T02:57:27.001Z,26.04
2017-05-30T02:59:54.735Z,27.58
2017-05-30T03:02:22.468Z,25.30
2017-05-30T03:04:50.244Z,27.62
2017-05-30T03:07:17.972Z,25.98
2017-05-30T03:09:45.740Z,24.20
2017-05-30T03:12:13.472Z,24.90
2017-05-30T03:14:41.241Z,27.00
2017-05-30T03:17:08.975Z,25.28
2017-05-30T03:19:36.704Z,24.56
2017-05-30T03:22:04.481Z,27.12
2017-05-30T03:24:32.213Z,25.44
2017-05-30T03:26:59.964Z,25.54
2017-05-30T03:29:27.720Z,26.88
2017-05-30T03:31:55.457Z,25.34
2017-05-30T03:34:23.223Z,26.10
2017-05-30T03:36:50.957Z,26.56
2017-05-30T03:39:19.022Z,26.68
2017-05-30T03:41:46.753Z,26.94
2017-05-30T03:44:14.487Z,26.04
2017-05-30T03:46:42.252Z,25.26
2017-05-30T03:49:09.985Z,26.66
2017-05-30T03:51:37.751Z,27.04
2017-05-30T03:54:05.484Z,27.50
2017-05-30T03:56:33.264Z,27.50
2017-05-30T03:59:01.032Z,25.64
2017-05-30T04:01:28.764Z,24.74
2017-05-30T04:03:56.525Z,23.26
2017-05-30T04:06:24.265Z,24.66
2017-05-30T04:08:52.036Z,25.32
2017-05-30T04:11:20.124Z,24.76
2017-05-30T04:13:47.864Z,23.48
2017-05-30T04:16:15.592Z,23.50
2017-05-30T04:18:43.356Z,22.80
2017-05-30T04:21:11.824Z,23.46
2017-05-30T04:23:39.571Z,27.30
2017-05-30T04:26:08.200Z,24.14
2017-05-30T04:28:35.930Z,22.74
2017-05-30T04:31:03.696Z,24.28
2017-05-30T04:33:31.432Z,23.36
2017-05-30T04:35:59.178Z,23.78
2017-05-30T04:38:26.941Z,24.10
2017-05-30T04:40:54.668Z,24.86
2017-05-30T04:43:22.430Z,23.18
2017-05-30T04:45:50.164Z,25.44
2017-05-30T04:48:17.919Z,24.80
2017-05-30T04:50:45.658Z,24.52
2017-05-30T04:53:13.444Z,27.90
2017-05-30T04:55:41.200Z,29.50
2017-05-30T04:58:08.934Z,30.56
2017-05-30T05:00:36.707Z,30.82
2017-05-30T05:03:04.446Z,31.64
2017-05-30T05:05:32.205Z,33.02
2017-05-30T05:07:59.939Z,31.62
2017-05-30T05:10:27.720Z,32.50
2017-05-30T05:12:55.456Z,35.94
2017-05-30T05:15:23.204Z,35.48
2017-05-30T05:17:51.083Z,36.12
2017-05-30T05:20:18.837Z,34.84
2017-05-30T05:22:46.593Z,34.78
2017-05-30T05:25:14.336Z,37.92
2017-05-30T05:27:42.117Z,36.58
2017-05-30T05:30:09.872Z,36.18
2017-05-30T05:32:37.601Z,33.34
2017-05-30T05:35:05.376Z,32.06
2017-05-30T05:37:33.128Z,33.36
2017-05-30T05:40:00.896Z,32.76
2017-05-30T05:42:28.631Z,34.48
2017-05-30T05:44:56.677Z,33.88
2017-05-30T05:47:24.408Z,31.00
2017-05-30T05:49:52.141Z,31.42
2017-05-30T05:52:19.923Z,32.62
2017-05-30T05:54:47.704Z,31.86
2017-05-30T05:57:15.450Z,30.66
2017-05-30T05:59:43.212Z,29.92
2017-05-30T06:02:11.852Z,30.22
2017-05-30T06:04:39.621Z,28.82
2017-05-30T06:07:07.353Z,31.90
2017-05-30T06:09:35.118Z,28.64
2017-05-30T06:12:02.876Z,31.36
2017-05-30T06:14:30.612Z,31.84
2017-05-30T06:16:58.376Z,30.14
2017-05-30T06:19:25.346Z,29.08
2017-05-30T06:21:53.122Z,28.34
2017-05-30T06:24:20.881Z,31.18
2017-05-30T06:26:48.628Z,30.24
2017-05-30T06:29:16.393Z,31.36
2017-05-30T06:31:44.136Z,29.76
2017-05-30T06:34:11.936Z,30.40
2017-05-30T06:36:39.670Z,29.48
2017-05-30T06:39:07.431Z,30.70
2017-05-30T06:41:35.168Z,32.48
2017-05-30T06:44:02.947Z,32.42
2017-05-30T06:46:30.685Z,29.98
2017-05-30T06:48:58.440Z,27.26
2017-05-30T06:51:26.220Z,31.42
2017-05-30T06:53:53.957Z,29.40
2017-05-30T06:56:21.712Z,29.28
2017-05-30T06:58:49.443Z,30.98
2017-05-30T07:01:17.578Z,25.50
2017-05-30T07:03:45.318Z,28.48
2017-05-30T07:06:13.066Z,27.86
2017-05-30T07:08:40.836Z,30.02
2017-05-30T07:11:08.568Z,30.70
2017-05-30T07:13:36.324Z,30.06
2017-05-30T07:16:04.063Z,29.92
2017-05-30T07:18:31.852Z,28.14
2017-05-30T07:20:59.654Z,28.78
2017-05-30T07:23:27.522Z,28.52
2017-05-30T07:25:55.293Z,29.36
2017-05-30T07:28:23.033Z,27.48
2017-05-30T07:30:50.778Z,27.74
2017-05-30T07:33:18.541Z,27.64
2017-05-30T07:35:46.278Z,27.16
2017-05-30T07:38:14.042Z,28.38
2017-05-30T07:40:41.779Z,25.22
2017-05-30T07:43:09.560Z,27.10
2017-05-30T07:45:37.292Z,27.08
2017-05-30T07:48:05.028Z,27.24
2017-05-30T07:50:32.804Z,29.58
2017-05-30T07:53:00.548Z,27.92
2017-05-30T07:55:28.289Z,27.18
2017-05-30T07:57:56.054Z,24.64
2017-05-30T08:00:23.787Z,26.32
2017-05-30T08:02:51.547Z,25.60
2017-05-30T08:05:19.292Z,24.74
2017-05-30T08:07:47.064Z,24.06
2017-05-30T08:10:14.812Z,23.94
2017-05-30T08:12:42.569Z,21.82
2017-05-30T08:15:10.307Z,21.72
2017-05-30T08:17:38.041Z,22.50
2017-05-30T08:20:05.805Z,20.88
2017-05-30T08:22:33.541Z,23.30
2017-05-30T08:25:01.324Z,25.58
2017-05-30T08:27:29.059Z,25.48
2017-05-30T08:29:56.815Z,21.70
2017-05-30T08:32:24.596Z,23.36
2017-05-30T08:34:52.341Z,23.72
2017-05-30T08:37:20.105Z,22.82
2017-05-30T08:39:47.843Z,23.46
2017-05-30T08:42:15.606Z,19.06
2017-05-30T08:44:43.332Z,21.92
2017-05-30T08:47:11.064Z,21.44
2017-05-30T08:49:38.820Z,21.30
2017-05-30T08:52:06.563Z,23.04
2017-05-30T08:54:34.299Z,22.54
2017-05-30T08:57:02.057Z,21.02
2017-05-30T09:00:16.821Z,22.50
2017-05-30T09:02:45.217Z,22.98
2017-05-30T09:05:12.966Z,21.78
2017-05-30T09:07:40.724Z,22.80
2017-05-30T09:10:08.452Z,23.28
2017-05-30T09:12:36.271Z,24.10
2017-05-30T09:15:04.011Z,23.22
2017-05-30T09:17:31.750Z,22.32
2017-05-30T09:19:59.516Z,23.42
2017-05-30T09:22:27.250Z,23.32
2017-05-30T09:24:55.020Z,25.68
2017-05-30T09:27:22.752Z,24.72
2017-05-30T09:29:49.970Z,22.30
2017-05-30T09:32:17.697Z,23.02
2017-05-30T09:34:45.432Z,26.50
2017-05-30T09:37:13.193Z,24.86
2017-05-30T09:39:40.924Z,25.22
2017-05-30T09:42:08.682Z,25.34
2017-05-30T09:44:36.416Z,25.08
2017-05-30T09:47:04.200Z,23.94
2017-05-30T09:49:31.960Z,24.58
2017-05-30T09:51:59.705Z,25.36
2017-05-30T09:54:27.468Z,26.58
2017-05-30T09:56:55.200Z,25.74
2017-05-30T09:59:23.372Z,27.44
2017-05-30T10:01:51.104Z,27.08
2017-05-30T10:04:18.832Z,28.84
2017-05-30T10:06:46.585Z,27.20
2017-05-30T10:09:14.319Z,29.90
2017-05-30T10:11:42.104Z,29.34
2017-05-30T10:14:09.839Z,32.04
2017-05-30T10:16:37.603Z,30.54
2017-05-30T10:19:05.371Z,33.26
2017-05-30T10:21:33.113Z,31.24
2017-05-30T10:24:00.868Z,33.70
2017-05-30T10:26:28.609Z,34.08
2017-05-30T10:28:56.372Z,34.04
2017-05-30T10:31:24.100Z,33.28
2017-05-30T10:33:51.878Z,36.02
2017-05-30T10:36:19.604Z,37.88
2017-05-30T10:38:47.350Z,37.06
2017-05-30T10:41:15.116Z,36.58
2017-05-30T10:43:42.858Z,40.16
2017-05-30T10:46:10.626Z,47.90
2017-05-30T10:48:38.360Z,45.40
2017-05-30T10:51:06.135Z,47.24
2017-05-30T10:53:33.884Z,47.62
2017-05-30T10:56:01.608Z,46.74
2017-05-30T10:58:29.363Z,49.50
2017-05-30T11:00:57.106Z,51.00
2017-05-30T11:03:24.870Z,49.84
2017-05-30T11:05:52.653Z,52.16
2017-05-30T11:08:20.388Z,50.38
2017-05-30T11:10:48.164Z,49.88
2017-05-30T11:13:15.904Z,46.36
2017-05-30T11:15:43.694Z,45.38
2017-05-30T11:18:11.424Z,44.42
2017-05-30T11:20:39.168Z,42.42
2017-05-30T11:23:06.924Z,41.60
2017-05-30T11:25:34.699Z,41.28
2017-05-30T11:28:02.458Z,38.88
2017-05-30T11:30:30.212Z,38.40
2017-05-30T11:32:57.971Z,37.94
2017-05-30T11:35:25.703Z,36.66
2017-05-30T11:37:53.496Z,36.84
2017-05-30T11:40:21.231Z,35.42
2017-05-30T11:42:49.446Z,35.76
2017-05-30T11:45:17.181Z,34.98
2017-05-30T11:47:44.912Z,32.74
2017-05-30T11:50:12.673Z,31.80
2017-05-30T11:52:40.417Z,34.48
2017-05-30T11:55:08.183Z,34.58
2017-05-30T11:57:35.924Z,30.82
2017-05-30T12:00:03.773Z,32.12
2017-05-30T12:02:31.513Z,32.62
2017-05-30T12:04:59.260Z,33.72
2017-05-30T12:07:27.024Z,32.98
2017-05-30T12:09:54.753Z,32.60
2017-05-30T12:12:21.932Z,33.56
2017-05-30T12:14:49.664Z,30.66
2017-05-30T12:17:17.393Z,33.04
2017-05-30T12:19:45.159Z,30.48
2017-05-30T12:22:12.907Z,30.40
2017-05-30T12:24:40.668Z,29.86
2017-05-30T12:27:09.372Z,29.02
2017-05-30T12:29:37.141Z,29.16
2017-05-30T12:32:04.868Z,28.48
2017-05-30T12:34:32.605Z,26.52
2017-05-30T12:37:00.356Z,26.50
2017-05-30T12:39:28.089Z,27.38
2017-05-30T12:41:55.871Z,26.20
2017-05-30T12:44:23.620Z,26.70
2017-05-30T12:46:51.613Z,31.30
2017-05-30T12:49:19.345Z,28.68
2017-05-30T12:51:47.086Z,32.20
2017-05-30T12:54:14.845Z,28.54
2017-05-30T12:56:42.589Z,30.20
2017-05-30T12:59:10.372Z,28.08
2017-05-30T13:01:38.109Z,30.82
2017-05-30T13:04:05.880Z,27.44
2017-05-30T13:06:33.669Z,24.32
2017-05-30T13:09:01.408Z,25.20
2017-05-30T13:11:29.189Z,25.44
2017-05-30T13:13:56.924Z,24.96
2017-05-30T13:16:24.851Z,26.84
2017-05-30T13:18:52.612Z,23.04
2017-05-30T13:23:57.294Z,17.52
2017-05-30T13:26:25.027Z,19.66
2017-05-30T13:28:52.796Z,20.40
2017-05-30T13:31:20.569Z,17.66
2017-05-30T13:33:48.300Z,19.88
2017-05-30T13:36:16.062Z,20.44
2017-05-30T13:38:43.822Z,24.18
2017-05-30T13:41:11.584Z,23.52
2017-05-30T13:43:39.317Z,23.68
2017-05-30T13:46:07.092Z,24.48
2017-05-30T13:48:34.827Z,26.38
2017-05-30T13:51:02.581Z,26.62
2017-05-30T13:53:30.340Z,25.32
2017-05-30T13:55:58.125Z,27.08
2017-05-30T13:58:25.876Z,26.40
2017-05-30T14:00:53.604Z,29.70
2017-05-30T14:03:21.364Z,28.80
2017-05-30T14:05:49.098Z,27.02
2017-05-30T14:08:16.853Z,30.64
2017-05-30T14:10:45.613Z,31.06
2017-05-30T14:13:13.373Z,27.56
2017-05-30T14:15:41.099Z,27.60
2017-05-30T14:18:08.892Z,21.80
2017-05-30T14:20:36.625Z,22.72
2017-05-30T14:23:04.368Z,20.38
2017-05-30T14:25:32.124Z,20.10
2017-05-30T14:27:59.857Z,17.84
2017-05-30T14:30:27.645Z,20.96
2017-05-30T14:32:55.385Z,20.00
2017-05-30T14:35:23.123Z,20.50
2017-05-30T14:37:50.885Z,19.54
2017-05-30T14:40:18.629Z,18.88
2017-05-30T14:42:46.412Z,21.20
2017-05-30T14:45:14.144Z,20.14
2017-05-30T14:47:41.876Z,22.14
2017-05-30T14:50:09.637Z,24.72
2017-05-30T14:52:37.570Z,23.66
2017-05-30T14:55:05.351Z,25.84
2017-05-30T14:57:33.105Z,27.86
2017-05-30T15:00:00.863Z,27.80
2017-05-30T15:02:28.612Z,29.00
2017-05-30T15:04:56.526Z,28.18
2017-05-30T15:07:23.492Z,27.44
2017-05-30T15:09:51.228Z,27.90
2017-05-30T15:12:18.981Z,29.72
2017-05-30T15:14:46.729Z,29.48
2017-05-30T15:17:14.497Z,26.30
2017-05-30T15:19:42.237Z,28.84
2017-05-30T15:22:10.028Z,25.86
2017-05-30T15:24:37.760Z,28.62
2017-05-30T15:27:05.487Z,29.40
2017-05-30T15:29:33.617Z,27.08
2017-05-30T15:32:01.350Z,26.66
2017-05-30T15:34:29.105Z,27.42
2017-05-30T15:36:56.845Z,25.64
2017-05-30T15:39:24.621Z,25.12
2017-05-30T15:41:52.364Z,21.22
2017-05-30T15:44:20.133Z,21.94
2017-05-30T15:46:47.897Z,21.04
2017-05-30T15:49:15.633Z,19.60
2017-05-30T15:51:43.389Z,20.76
2017-05-30T15:54:11.169Z,19.58
2017-05-30T15:56:38.944Z,18.22
2017-05-30T15:59:06.679Z,16.74
2017-05-30T16:01:34.412Z,17.36
2017-05-30T16:04:02.515Z,15.98
2017-05-30T16:06:30.248Z,15.92
2017-05-30T16:08:58.169Z,16.74
2017-05-30T16:11:25.915Z,15.86
2017-05-30T16:13:53.653Z,15.30
2017-05-30T16:16:21.409Z,16.92
2017-05-30T16:18:49.151Z,18.10
2017-05-30T16:21:16.937Z,18.20
2017-05-30T16:23:44.665Z,18.82
2017-05-30T16:26:12.405Z,19.88
2017-05-30T16:28:40.188Z,21.10
2017-05-30T16:31:07.917Z,22.56
2017-05-30T16:33:35.784Z,23.48
2017-05-30T16:36:03.520Z,26.22
2017-05-30T16:38:31.273Z,26.64
2017-05-30T16:40:59.048Z,26.00
2017-05-30T16:43:26.809Z,26.04
2017-05-30T16:45:54.549Z,26.56
2017-05-30T16:48:22.320Z,27.48
2017-05-30T16:50:50.072Z,25.28
2017-05-30T16:53:17.818Z,25.74
2017-05-30T16:55:45.619Z,25.46
2017-05-30T16:58:13.348Z,28.08
2017-05-30T17:00:41.320Z,24.42
2017-05-30T17:03:09.076Z,25.94
2017-05-30T17:05:36.837Z,24.10
2017-05-30T17:08:04.606Z,24.74
2017-05-30T17:10:32.337Z,26.50
2017-05-30T17:13:00.092Z,24.64
2017-05-30T17:15:27.847Z,22.02
2017-05-30T17:17:55.616Z,23.46
2017-05-30T17:20:23.353Z,22.48
2017-05-30T17:22:51.140Z,22.42
2017-05-30T17:25:18.873Z,24.50
2017-05-30T17:27:46.603Z,26.10
2017-05-30T17:30:14.364Z,24.58
2017-05-30T17:32:42.422Z,25.96
2017-05-30T17:35:10.180Z,27.40
2017-05-30T17:37:37.950Z,29.64
2017-05-30T17:40:05.740Z,26.38
2017-05-30T17:42:33.472Z,25.34
2017-05-30T17:45:01.208Z,26.30
2017-05-30T17:47:29.008Z,25.40
2017-05-30T17:49:56.741Z,25.76
2017-05-30T17:52:24.496Z,20.78
2017-05-30T17:54:52.235Z,23.62
2017-05-30T17:57:19.996Z,19.86
2017-05-30T17:59:47.729Z,21.54
2017-05-30T18:02:15.536Z,21.44
2017-05-30T18:04:43.264Z,20.68
2017-05-30T18:07:12.634Z,21.74
2017-05-30T18:09:40.735Z,20.54
2017-05-30T18:12:08.488Z,20.26
2017-05-30T18:14:36.220Z,19.92
2017-05-30T18:17:03.989Z,19.16
2017-05-30T18:19:31.732Z,18.94
2017-05-30T18:21:59.492Z,19.34
2017-05-30T18:24:27.231Z,18.26
2017-05-30T18:26:55.009Z,20.08
2017-05-30T18:29:22.747Z,19.28
2017-05-30T18:31:50.480Z,20.56
2017-05-30T18:34:18.241Z,18.06
2017-05-30T18:36:45.976Z,20.14
2017-05-30T18:39:13.757Z,19.10
2017-05-30T18:41:41.677Z,18.26
2017-05-30T18:44:09.411Z,22.18
2017-05-30T18:46:37.141Z,18.50
2017-05-30T18:49:04.920Z,19.70
2017-05-30T18:51:32.653Z,21.18
2017-05-30T18:54:00.412Z,20.16
2017-05-30T18:56:28.168Z,21.84
2017-05-30T18:58:55.918Z,21.38
2017-05-30T19:01:23.677Z,22.50
2017-05-30T19:03:51.412Z,21.38
2017-05-30T19:06:19.172Z,20.20
2017-05-30T19:08:46.927Z,21.80
2017-05-30T19:11:14.700Z,21.72
2017-05-30T19:13:42.447Z,21.64
2017-05-30T19:16:10.230Z,20.14
2017-05-30T19:18:37.969Z,20.04
2017-05-30T19:21:05.757Z,19.28
2017-05-30T19:23:33.494Z,20.82
2017-05-30T19:26:01.232Z,19.96
2017-05-30T19:28:28.988Z,18.96
2017-05-30T19:30:56.722Z,21.24
2017-05-30T19:33:24.492Z,20.44
2017-05-30T19:35:52.233Z,20.12
2017-05-30T19:38:19.968Z,19.62
2017-05-30T19:40:47.736Z,20.10
2017-05-30T19:43:15.466Z,20.08
2017-05-30T19:45:43.244Z,20.48
2017-05-30T19:48:10.977Z,20.36
2017-05-30T19:50:38.737Z,19.92
2017-05-30T19:53:06.496Z,19.42
2017-05-30T19:55:34.240Z,20.90
2017-05-30T19:58:02.008Z,19.82
2017-05-30T20:00:29.749Z,20.36
2017-05-30T20:02:57.494Z,18.86
2017-05-30T20:05:25.249Z,19.00
2017-05-30T20:07:52.978Z,17.68
2017-05-30T20:10:20.742Z,19.14
2017-05-30T20:12:48.483Z,17.88
2017-05-30T20:15:16.237Z,19.22
2017-05-30T20:17:43.972Z,19.66
2017-05-30T20:20:12.768Z,19.90
2017-05-30T20:22:40.513Z,17.08
2017-05-30T20:25:09.172Z,17.78
2017-05-30T20:27:36.909Z,17.28
2017-05-30T20:30:04.647Z,15.90
2017-05-30T20:32:31.644Z,17.76
2017-05-30T20:34:59.372Z,17.24
2017-05-30T20:37:27.128Z,17.54
2017-05-30T20:39:54.088Z,17.00
2017-05-30T20:42:21.841Z,16.30
2017-05-30T20:44:49.575Z,17.00
2017-05-30T20:47:17.509Z,20.04
2017-05-30T20:49:45.280Z,21.40
2017-05-30T20:52:13.008Z,22.46
2017-05-30T20:54:40.765Z,20.20
2017-05-30T20:57:08.496Z,19.22
2017-05-30T20:59:36.268Z,19.46
2017-05-30T21:02:04.000Z,20.92
2017-05-30T21:04:31.736Z,21.46
2017-05-30T21:06:59.500Z,20.68
2017-05-30T21:09:27.232Z,20.70
2017-05-30T21:11:54.996Z,19.20
2017-05-30T21:14:22.725Z,20.80
2017-05-30T21:16:50.504Z,20.98
2017-05-30T21:19:18.276Z,20.12
2017-05-30T21:21:46.008Z,19.92
2017-05-30T21:24:13.765Z,20.00
2017-05-30T21:26:41.502Z,21.40
2017-05-30T21:29:09.267Z,23.12
2017-05-30T21:31:37.004Z,22.30
2017-05-30T21:34:04.785Z,23.80
2017-05-30T21:36:32.516Z,21.80
2017-05-30T21:39:00.256Z,20.72
2017-05-30T21:41:28.024Z,21.26
2017-05-30T21:43:55.769Z,20.28
2017-05-30T21:46:23.516Z,23.52
2017-05-30T21:48:51.256Z,20.70
2017-05-30T21:51:19.021Z,23.28
2017-05-30T21:53:46.764Z,23.34
2017-05-30T21:56:14.583Z,24.02
2017-05-30T21:58:42.319Z,23.86
2017-05-30T22:01:09.285Z,24.92
2017-05-30T22:03:37.056Z,27.06
2017-05-30T22:06:05.598Z,24.14
2017-05-30T22:08:33.388Z,25.06
2017-05-30T22:11:01.245Z,24.06
2017-05-30T22:13:29.380Z,26.14
2017-05-30T22:15:56.353Z,26.14
2017-05-30T22:18:24.088Z,23.38
2017-05-30T22:20:51.842Z,26.14
2017-05-30T22:23:19.574Z,21.74
2017-05-30T22:25:47.333Z,22.10
2017-05-30T22:28:15.068Z,21.74
2017-05-30T22:30:42.828Z,21.40
2017-05-30T22:33:10.574Z,22.82
2017-05-30T22:35:38.688Z,19.64
2017-05-30T22:38:06.421Z,22.34
2017-05-30T22:40:34.164Z,19.96
2017-05-30T22:43:01.923Z,20.66
2017-05-30T22:45:29.653Z,21.98
2017-05-30T22:47:57.417Z,20.76
2017-05-30T22:50:25.148Z,21.50
2017-05-30T22:52:52.920Z,20.00
2017-05-30T22:55:20.688Z,20.74
2017-05-30T22:57:48.428Z,22.60
2017-05-30T23:00:16.191Z,20.06
2017-05-30T23:02:43.932Z,21.30
2017-05-30T23:05:11.693Z,21.78
2017-05-30T23:07:39.426Z,22.20
2017-05-30T23:10:08.028Z,21.22
2017-05-30T23:12:35.779Z,20.28
2017-05-30T23:15:03.508Z,18.68
2017-05-30T23:17:31.268Z,20.40
2017-05-30T23:19:59.000Z,19.90
2017-05-30T23:22:26.756Z,20.96
2017-05-30T23:24:54.493Z,18.50
2017-05-30T23:27:22.278Z,22.52
2017-05-30T23:29:50.007Z,25.44
2017-05-30T23:32:17.743Z,23.36
2017-05-30T23:34:45.508Z,26.30
2017-05-30T23:37:13.241Z,25.46
2017-05-30T23:39:40.252Z,27.32
2017-05-30T23:42:08.572Z,22.90
2017-05-30T23:44:36.415Z,26.56
2017-05-30T23:47:04.201Z,24.58
2017-05-30T23:49:31.984Z,27.02
2017-05-30T23:51:59.804Z,24.28
2017-05-30T23:54:27.608Z,24.36
2017-05-30T23:56:55.429Z,28.10
2017-05-30T23:59:23.220Z,27.68
